sensor_id;sensor_type;location;lat;lon;timestamp;temperature;humidity
45785;DHT22;31489;51.404;5.474;2023-08-31T00:00:48;17.20;72.00
45785;DHT22;31489;51.404;5.474;2023-08-31T00:03:16;17.20;72.10
45785;DHT22;31489;51.404;5.474;2023-08-31T00:05:43;17.10;72.10
45785;DHT22;31489;51.404;5.474;2023-08-31T00:08:10;17.10;72.20
45785;DHT22;31489;51.404;5.474;2023-08-31T00:10:37;17.10;72.20
45785;DHT22;31489;51.404;5.474;2023-08-31T00:13:03;17.10;72.30
45785;DHT22;31489;51.404;5.474;2023-08-31T00:15:29;17.10;72.30
45785;DHT22;31489;51.404;5.474;2023-08-31T00:17:58;17.10;72.30
45785;DHT22;31489;51.404;5.474;2023-08-31T00:20:24;17.10;72.30
45785;DHT22;31489;51.404;5.474;2023-08-31T00:22:50;17.10;72.40
45785;DHT22;31489;51.404;5.474;2023-08-31T00:25:16;17.00;72.40
45785;DHT22;31489;51.404;5.474;2023-08-31T00:27:41;17.00;72.40
45785;DHT22;31489;51.404;5.474;2023-08-31T00:30:09;17.00;72.50
45785;DHT22;31489;51.404;5.474;2023-08-31T00:32:36;17.00;72.50
45785;DHT22;31489;51.404;5.474;2023-08-31T00:35:02;17.00;72.60
45785;DHT22;31489;51.404;5.474;2023-08-31T00:37:29;16.90;72.60
45785;DHT22;31489;51.404;5.474;2023-08-31T00:39:54;16.90;72.70
45785;DHT22;31489;51.404;5.474;2023-08-31T00:42:20;16.90;72.80
45785;DHT22;31489;51.404;5.474;2023-08-31T00:44:47;16.90;72.90
45785;DHT22;31489;51.404;5.474;2023-08-31T00:47:13;16.90;72.90
45785;DHT22;31489;51.404;5.474;2023-08-31T00:49:40;16.80;72.90
45785;DHT22;31489;51.404;5.474;2023-08-31T00:52:06;16.80;73.10
45785;DHT22;31489;51.404;5.474;2023-08-31T00:54:33;16.70;73.00
45785;DHT22;31489;51.404;5.474;2023-08-31T00:56:59;16.70;73.10
45785;DHT22;31489;51.404;5.474;2023-08-31T00:59:25;16.70;73.80
45785;DHT22;31489;51.404;5.474;2023-08-31T01:04:38;16.60;73.50
45785;DHT22;31489;51.404;5.474;2023-08-31T01:07:22;16.60;73.70
45785;DHT22;31489;51.404;5.474;2023-08-31T01:15:04;16.50;73.60
45785;DHT22;31489;51.404;5.474;2023-08-31T01:17:36;16.50;73.70
45785;DHT22;31489;51.404;5.474;2023-08-31T01:20:03;16.50;73.90
45785;DHT22;31489;51.404;5.474;2023-08-31T01:22:47;16.50;73.90
45785;DHT22;31489;51.404;5.474;2023-08-31T01:25:13;16.40;74.20
45785;DHT22;31489;51.404;5.474;2023-08-31T01:27:39;16.40;73.90
45785;DHT22;31489;51.404;5.474;2023-08-31T01:30:06;16.40;73.90
45785;DHT22;31489;51.404;5.474;2023-08-31T01:32:32;16.30;74.00
45785;DHT22;31489;51.404;5.474;2023-08-31T01:34:58;16.40;74.20
45785;DHT22;31489;51.404;5.474;2023-08-31T01:37:44;16.30;74.20
45785;DHT22;31489;51.404;5.474;2023-08-31T01:42:45;16.30;74.60
45785;DHT22;31489;51.404;5.474;2023-08-31T01:45:14;16.30;74.50
45785;DHT22;31489;51.404;5.474;2023-08-31T01:47:40;16.30;74.50
45785;DHT22;31489;51.404;5.474;2023-08-31T01:50:06;16.30;74.50
45785;DHT22;31489;51.404;5.474;2023-08-31T01:52:32;16.20;74.50
45785;DHT22;31489;51.404;5.474;2023-08-31T01:54:58;16.20;74.60
45785;DHT22;31489;51.404;5.474;2023-08-31T01:57:23;16.20;74.60
45785;DHT22;31489;51.404;5.474;2023-08-31T01:59:51;16.20;74.60
45785;DHT22;31489;51.404;5.474;2023-08-31T02:02:17;16.20;74.70
45785;DHT22;31489;51.404;5.474;2023-08-31T02:04:43;16.20;74.80
45785;DHT22;31489;51.404;5.474;2023-08-31T02:07:09;16.20;74.70
45785;DHT22;31489;51.404;5.474;2023-08-31T02:09:35;16.20;74.80
45785;DHT22;31489;51.404;5.474;2023-08-31T02:12:00;16.20;74.80
45785;DHT22;31489;51.404;5.474;2023-08-31T02:14:26;16.10;74.80
45785;DHT22;31489;51.404;5.474;2023-08-31T02:16:51;16.10;74.80
45785;DHT22;31489;51.404;5.474;2023-08-31T02:19:17;16.10;74.90
45785;DHT22;31489;51.404;5.474;2023-08-31T02:21:43;16.10;74.80
45785;DHT22;31489;51.404;5.474;2023-08-31T02:24:08;16.10;74.90
45785;DHT22;31489;51.404;5.474;2023-08-31T02:26:35;16.10;75.00
45785;DHT22;31489;51.404;5.474;2023-08-31T02:29:04;16.10;75.10
45785;DHT22;31489;51.404;5.474;2023-08-31T02:31:29;16.10;75.10
45785;DHT22;31489;51.404;5.474;2023-08-31T02:33:55;16.00;75.20
45785;DHT22;31489;51.404;5.474;2023-08-31T02:36:21;16.00;75.20
45785;DHT22;31489;51.404;5.474;2023-08-31T02:38:46;16.10;75.40
45785;DHT22;31489;51.404;5.474;2023-08-31T02:41:12;16.10;75.40
45785;DHT22;31489;51.404;5.474;2023-08-31T02:43:38;16.00;75.40
45785;DHT22;31489;51.404;5.474;2023-08-31T02:46:04;16.00;75.50
45785;DHT22;31489;51.404;5.474;2023-08-31T02:48:32;16.00;75.50
45785;DHT22;31489;51.404;5.474;2023-08-31T02:50:58;16.00;75.60
45785;DHT22;31489;51.404;5.474;2023-08-31T02:53:27;16.00;75.60
45785;DHT22;31489;51.404;5.474;2023-08-31T02:55:53;16.00;75.60
45785;DHT22;31489;51.404;5.474;2023-08-31T02:58:19;16.00;75.60
45785;DHT22;31489;51.404;5.474;2023-08-31T03:00:45;15.90;75.70
45785;DHT22;31489;51.404;5.474;2023-08-31T03:03:14;16.00;75.80
45785;DHT22;31489;51.404;5.474;2023-08-31T03:05:39;15.90;75.90
45785;DHT22;31489;51.404;5.474;2023-08-31T03:08:05;15.90;75.90
45785;DHT22;31489;51.404;5.474;2023-08-31T03:10:31;15.90;75.90
45785;DHT22;31489;51.404;5.474;2023-08-31T03:12:56;15.80;76.00
45785;DHT22;31489;51.404;5.474;2023-08-31T03:15:22;15.90;76.10
45785;DHT22;31489;51.404;5.474;2023-08-31T03:17:48;15.80;76.10
45785;DHT22;31489;51.404;5.474;2023-08-31T03:20:14;15.80;76.20
45785;DHT22;31489;51.404;5.474;2023-08-31T03:22:40;15.80;76.30
45785;DHT22;31489;51.404;5.474;2023-08-31T03:25:05;15.80;76.30
45785;DHT22;31489;51.404;5.474;2023-08-31T03:27:31;15.80;76.40
45785;DHT22;31489;51.404;5.474;2023-08-31T03:29:57;15.80;76.30
45785;DHT22;31489;51.404;5.474;2023-08-31T03:32:22;15.80;76.40
45785;DHT22;31489;51.404;5.474;2023-08-31T03:34:48;15.80;76.40
45785;DHT22;31489;51.404;5.474;2023-08-31T03:37:15;15.80;76.40
45785;DHT22;31489;51.404;5.474;2023-08-31T03:39:41;15.80;76.40
45785;DHT22;31489;51.404;5.474;2023-08-31T03:42:11;15.80;76.50
45785;DHT22;31489;51.404;5.474;2023-08-31T03:44:36;15.80;76.50
45785;DHT22;31489;51.404;5.474;2023-08-31T03:47:03;15.80;76.70
45785;DHT22;31489;51.404;5.474;2023-08-31T03:49:28;15.80;76.70
45785;DHT22;31489;51.404;5.474;2023-08-31T03:51:55;15.70;76.70
45785;DHT22;31489;51.404;5.474;2023-08-31T03:54:21;15.80;76.80
45785;DHT22;31489;51.404;5.474;2023-08-31T03:56:46;15.70;76.80
45785;DHT22;31489;51.404;5.474;2023-08-31T03:59:12;15.70;76.80
45785;DHT22;31489;51.404;5.474;2023-08-31T04:01:38;15.70;76.90
45785;DHT22;31489;51.404;5.474;2023-08-31T04:04:04;15.70;76.80
45785;DHT22;31489;51.404;5.474;2023-08-31T04:06:30;15.70;76.90
45785;DHT22;31489;51.404;5.474;2023-08-31T04:08:56;15.70;77.00
45785;DHT22;31489;51.404;5.474;2023-08-31T04:11:22;15.70;77.00
45785;DHT22;31489;51.404;5.474;2023-08-31T04:13:47;15.70;77.10
45785;DHT22;31489;51.404;5.474;2023-08-31T04:16:13;15.60;77.10
45785;DHT22;31489;51.404;5.474;2023-08-31T04:18:39;15.60;77.80
45785;DHT22;31489;51.404;5.474;2023-08-31T04:21:06;15.60;77.30
45785;DHT22;31489;51.404;5.474;2023-08-31T04:23:31;15.60;77.50
45785;DHT22;31489;51.404;5.474;2023-08-31T04:25:58;15.60;77.60
45785;DHT22;31489;51.404;5.474;2023-08-31T04:28:23;15.60;77.60
45785;DHT22;31489;51.404;5.474;2023-08-31T04:30:50;15.50;77.60
45785;DHT22;31489;51.404;5.474;2023-08-31T04:33:15;15.50;77.60
45785;DHT22;31489;51.404;5.474;2023-08-31T04:35:41;15.60;77.70
45785;DHT22;31489;51.404;5.474;2023-08-31T04:38:07;15.60;77.80
45785;DHT22;31489;51.404;5.474;2023-08-31T04:40:33;15.50;77.80
45785;DHT22;31489;51.404;5.474;2023-08-31T04:42:59;15.60;77.90
45785;DHT22;31489;51.404;5.474;2023-08-31T04:45:24;15.60;77.90
45785;DHT22;31489;51.404;5.474;2023-08-31T04:47:50;15.50;77.90
45785;DHT22;31489;51.404;5.474;2023-08-31T04:50:16;15.50;77.90
45785;DHT22;31489;51.404;5.474;2023-08-31T04:52:42;15.50;77.70
45785;DHT22;31489;51.404;5.474;2023-08-31T04:55:08;15.50;77.90
45785;DHT22;31489;51.404;5.474;2023-08-31T04:57:34;15.50;78.00
45785;DHT22;31489;51.404;5.474;2023-08-31T05:00:00;15.50;78.10
45785;DHT22;31489;51.404;5.474;2023-08-31T05:02:27;15.50;78.00
45785;DHT22;31489;51.404;5.474;2023-08-31T05:04:56;15.50;78.10
45785;DHT22;31489;51.404;5.474;2023-08-31T05:07:21;15.50;78.10
45785;DHT22;31489;51.404;5.474;2023-08-31T05:09:47;15.60;78.10
45785;DHT22;31489;51.404;5.474;2023-08-31T05:12:13;15.60;78.20
45785;DHT22;31489;51.404;5.474;2023-08-31T05:14:38;15.50;78.10
45785;DHT22;31489;51.404;5.474;2023-08-31T05:17:05;15.60;78.20
45785;DHT22;31489;51.404;5.474;2023-08-31T05:19:31;15.60;78.20
45785;DHT22;31489;51.404;5.474;2023-08-31T05:21:56;15.60;78.20
45785;DHT22;31489;51.404;5.474;2023-08-31T05:24:22;15.60;78.20
45785;DHT22;31489;51.404;5.474;2023-08-31T05:26:49;15.60;78.20
45785;DHT22;31489;51.404;5.474;2023-08-31T05:29:15;15.60;78.20
45785;DHT22;31489;51.404;5.474;2023-08-31T05:31:41;15.60;78.30
45785;DHT22;31489;51.404;5.474;2023-08-31T05:34:06;15.60;78.30
45785;DHT22;31489;51.404;5.474;2023-08-31T05:36:32;15.60;78.40
45785;DHT22;31489;51.404;5.474;2023-08-31T05:38:58;15.60;78.50
45785;DHT22;31489;51.404;5.474;2023-08-31T05:41:24;15.60;78.50
45785;DHT22;31489;51.404;5.474;2023-08-31T05:43:50;15.60;78.50
45785;DHT22;31489;51.404;5.474;2023-08-31T05:46:16;15.60;78.60
45785;DHT22;31489;51.404;5.474;2023-08-31T05:48:41;15.70;78.60
45785;DHT22;31489;51.404;5.474;2023-08-31T05:51:08;15.70;78.80
45785;DHT22;31489;51.404;5.474;2023-08-31T05:53:36;15.70;78.90
45785;DHT22;31489;51.404;5.474;2023-08-31T05:56:03;15.60;78.90
45785;DHT22;31489;51.404;5.474;2023-08-31T05:58:36;15.70;79.10
45785;DHT22;31489;51.404;5.474;2023-08-31T06:01:03;15.70;79.30
45785;DHT22;31489;51.404;5.474;2023-08-31T06:03:30;15.70;79.30
45785;DHT22;31489;51.404;5.474;2023-08-31T06:05:57;15.70;79.30
45785;DHT22;31489;51.404;5.474;2023-08-31T06:08:23;15.70;79.40
45785;DHT22;31489;51.404;5.474;2023-08-31T06:10:49;15.70;79.50
45785;DHT22;31489;51.404;5.474;2023-08-31T06:13:15;15.80;79.60
45785;DHT22;31489;51.404;5.474;2023-08-31T06:15:41;15.80;79.70
45785;DHT22;31489;51.404;5.474;2023-08-31T06:18:07;15.80;79.70
45785;DHT22;31489;51.404;5.474;2023-08-31T06:20:35;15.90;79.80
45785;DHT22;31489;51.404;5.474;2023-08-31T06:23:02;15.90;79.90
45785;DHT22;31489;51.404;5.474;2023-08-31T06:25:28;15.90;80.00
45785;DHT22;31489;51.404;5.474;2023-08-31T06:27:54;15.90;80.00
45785;DHT22;31489;51.404;5.474;2023-08-31T06:30:20;16.00;80.10
45785;DHT22;31489;51.404;5.474;2023-08-31T06:32:47;16.00;80.20
45785;DHT22;31489;51.404;5.474;2023-08-31T06:35:13;16.10;80.40
45785;DHT22;31489;51.404;5.474;2023-08-31T06:37:40;16.10;80.40
45785;DHT22;31489;51.404;5.474;2023-08-31T06:40:07;16.10;80.50
45785;DHT22;31489;51.404;5.474;2023-08-31T06:42:36;16.20;80.70
45785;DHT22;31489;51.404;5.474;2023-08-31T06:45:07;16.20;80.70
45785;DHT22;31489;51.404;5.474;2023-08-31T06:47:33;16.20;81.00
45785;DHT22;31489;51.404;5.474;2023-08-31T06:49:59;16.30;80.90
45785;DHT22;31489;51.404;5.474;2023-08-31T06:52:26;16.30;80.90
45785;DHT22;31489;51.404;5.474;2023-08-31T06:54:55;16.40;81.10
45785;DHT22;31489;51.404;5.474;2023-08-31T06:57:24;16.40;81.00
45785;DHT22;31489;51.404;5.474;2023-08-31T06:59:50;16.40;81.20
45785;DHT22;31489;51.404;5.474;2023-08-31T07:02:16;16.50;81.20
45785;DHT22;31489;51.404;5.474;2023-08-31T07:04:41;16.50;81.20
45785;DHT22;31489;51.404;5.474;2023-08-31T07:07:07;16.60;81.30
45785;DHT22;31489;51.404;5.474;2023-08-31T07:09:34;16.60;81.20
45785;DHT22;31489;51.404;5.474;2023-08-31T07:12:00;16.70;81.30
45785;DHT22;31489;51.404;5.474;2023-08-31T07:14:29;16.70;81.20
45785;DHT22;31489;51.404;5.474;2023-08-31T07:16:54;16.80;81.30
45785;DHT22;31489;51.404;5.474;2023-08-31T07:19:20;16.90;81.40
45785;DHT22;31489;51.404;5.474;2023-08-31T07:21:46;16.90;81.40
45785;DHT22;31489;51.404;5.474;2023-08-31T07:24:13;16.90;81.40
45785;DHT22;31489;51.404;5.474;2023-08-31T07:26:39;17.00;81.40
45785;DHT22;31489;51.404;5.474;2023-08-31T07:29:04;17.00;81.40
45785;DHT22;31489;51.404;5.474;2023-08-31T07:31:31;17.10;81.50
45785;DHT22;31489;51.404;5.474;2023-08-31T07:33:57;17.10;81.30
45785;DHT22;31489;51.404;5.474;2023-08-31T07:36:24;17.20;81.50
45785;DHT22;31489;51.404;5.474;2023-08-31T07:38:52;17.30;81.40
45785;DHT22;31489;51.404;5.474;2023-08-31T07:41:18;17.30;81.40
45785;DHT22;31489;51.404;5.474;2023-08-31T07:43:43;17.40;81.30
45785;DHT22;31489;51.404;5.474;2023-08-31T07:46:10;17.40;81.40
45785;DHT22;31489;51.404;5.474;2023-08-31T07:48:35;17.50;81.40
45785;DHT22;31489;51.404;5.474;2023-08-31T07:51:01;17.50;81.20
45785;DHT22;31489;51.404;5.474;2023-08-31T07:53:28;17.50;81.10
45785;DHT22;31489;51.404;5.474;2023-08-31T07:55:55;17.60;81.10
45785;DHT22;31489;51.404;5.474;2023-08-31T07:58:25;17.70;81.00
45785;DHT22;31489;51.404;5.474;2023-08-31T08:00:55;17.70;81.10
45785;DHT22;31489;51.404;5.474;2023-08-31T08:03:22;17.80;81.30
45785;DHT22;31489;51.404;5.474;2023-08-31T08:05:47;17.90;81.20
45785;DHT22;31489;51.404;5.474;2023-08-31T08:08:13;17.90;81.20
45785;DHT22;31489;51.404;5.474;2023-08-31T08:10:39;18.00;81.10
45785;DHT22;31489;51.404;5.474;2023-08-31T08:13:05;18.10;81.10
45785;DHT22;31489;51.404;5.474;2023-08-31T08:15:31;18.10;81.10
45785;DHT22;31489;51.404;5.474;2023-08-31T08:17:57;18.20;80.90
45785;DHT22;31489;51.404;5.474;2023-08-31T08:20:23;18.30;80.80
45785;DHT22;31489;51.404;5.474;2023-08-31T08:22:50;18.40;80.80
45785;DHT22;31489;51.404;5.474;2023-08-31T08:25:19;18.40;80.60
45785;DHT22;31489;51.404;5.474;2023-08-31T08:27:46;18.50;80.50
45785;DHT22;31489;51.404;5.474;2023-08-31T08:30:14;18.60;80.20
45785;DHT22;31489;51.404;5.474;2023-08-31T08:32:44;18.60;79.90
45785;DHT22;31489;51.404;5.474;2023-08-31T08:35:10;18.70;79.60
45785;DHT22;31489;51.404;5.474;2023-08-31T08:37:35;18.70;79.70
45785;DHT22;31489;51.404;5.474;2023-08-31T08:40:02;18.80;79.80
45785;DHT22;31489;51.404;5.474;2023-08-31T08:42:30;18.90;79.60
45785;DHT22;31489;51.404;5.474;2023-08-31T08:45:01;18.90;79.40
45785;DHT22;31489;51.404;5.474;2023-08-31T08:47:28;19.00;79.80
45785;DHT22;31489;51.404;5.474;2023-08-31T08:49:56;19.10;79.50
45785;DHT22;31489;51.404;5.474;2023-08-31T08:52:23;19.20;79.80
45785;DHT22;31489;51.404;5.474;2023-08-31T08:54:53;19.20;79.70
45785;DHT22;31489;51.404;5.474;2023-08-31T08:57:19;19.30;79.50
45785;DHT22;31489;51.404;5.474;2023-08-31T08:59:45;19.40;79.20
45785;DHT22;31489;51.404;5.474;2023-08-31T09:02:11;19.50;79.00
45785;DHT22;31489;51.404;5.474;2023-08-31T09:04:37;19.60;78.40
45785;DHT22;31489;51.404;5.474;2023-08-31T09:07:03;19.70;78.00
45785;DHT22;31489;51.404;5.474;2023-08-31T09:09:29;19.70;77.60
45785;DHT22;31489;51.404;5.474;2023-08-31T09:11:57;19.80;77.40
45785;DHT22;31489;51.404;5.474;2023-08-31T09:14:31;19.90;77.40
45785;DHT22;31489;51.404;5.474;2023-08-31T09:16:56;19.90;77.40
45785;DHT22;31489;51.404;5.474;2023-08-31T09:19:24;20.00;77.50
45785;DHT22;31489;51.404;5.474;2023-08-31T09:21:55;20.10;77.60
45785;DHT22;31489;51.404;5.474;2023-08-31T09:24:21;20.20;76.80
45785;DHT22;31489;51.404;5.474;2023-08-31T09:26:55;20.20;76.30
45785;DHT22;31489;51.404;5.474;2023-08-31T09:29:21;20.30;75.60
45785;DHT22;31489;51.404;5.474;2023-08-31T09:31:47;20.30;75.60
45785;DHT22;31489;51.404;5.474;2023-08-31T09:34:15;20.40;75.70
45785;DHT22;31489;51.404;5.474;2023-08-31T09:36:41;20.40;75.80
45785;DHT22;31489;51.404;5.474;2023-08-31T09:39:08;20.50;75.50
45785;DHT22;31489;51.404;5.474;2023-08-31T09:41:54;20.60;75.30
45785;DHT22;31489;51.404;5.474;2023-08-31T09:44:21;20.70;74.50
45785;DHT22;31489;51.404;5.474;2023-08-31T09:46:47;20.80;74.80
45785;DHT22;31489;51.404;5.474;2023-08-31T09:49:14;20.90;74.40
45785;DHT22;31489;51.404;5.474;2023-08-31T09:51:44;20.90;74.30
45785;DHT22;31489;51.404;5.474;2023-08-31T09:54:13;21.00;74.20
45785;DHT22;31489;51.404;5.474;2023-08-31T09:56:44;21.10;73.10
45785;DHT22;31489;51.404;5.474;2023-08-31T09:59:12;21.20;72.90
45785;DHT22;31489;51.404;5.474;2023-08-31T10:01:42;21.30;73.00
45785;DHT22;31489;51.404;5.474;2023-08-31T10:04:09;21.40;72.50
45785;DHT22;31489;51.404;5.474;2023-08-31T10:06:39;21.50;73.00
45785;DHT22;31489;51.404;5.474;2023-08-31T10:09:05;21.60;72.60
45785;DHT22;31489;51.404;5.474;2023-08-31T10:11:32;21.70;72.10
45785;DHT22;31489;51.404;5.474;2023-08-31T10:13:58;21.80;71.60
45785;DHT22;31489;51.404;5.474;2023-08-31T10:16:28;21.90;70.80
45785;DHT22;31489;51.404;5.474;2023-08-31T10:18:55;22.00;69.90
45785;DHT22;31489;51.404;5.474;2023-08-31T10:21:21;22.00;68.70
45785;DHT22;31489;51.404;5.474;2023-08-31T10:23:48;22.10;68.60
45785;DHT22;31489;51.404;5.474;2023-08-31T10:26:26;22.20;68.50
45785;DHT22;31489;51.404;5.474;2023-08-31T10:28:52;22.20;67.80
45785;DHT22;31489;51.404;5.474;2023-08-31T10:31:18;22.20;67.50
45785;DHT22;31489;51.404;5.474;2023-08-31T10:33:46;22.20;67.30
45785;DHT22;31489;51.404;5.474;2023-08-31T10:36:13;22.20;66.90
45785;DHT22;31489;51.404;5.474;2023-08-31T10:38:41;22.40;67.80
45785;DHT22;31489;51.404;5.474;2023-08-31T10:46:32;23.50;67.00
45785;DHT22;31489;51.404;5.474;2023-08-31T10:49:01;23.90;65.70
45785;DHT22;31489;51.404;5.474;2023-08-31T10:51:30;24.20;65.50
45785;DHT22;31489;51.404;5.474;2023-08-31T10:56:31;24.60;62.30
45785;DHT22;31489;51.404;5.474;2023-08-31T10:58:59;24.80;64.00
45785;DHT22;31489;51.404;5.474;2023-08-31T11:04:26;25.40;61.70
45785;DHT22;31489;51.404;5.474;2023-08-31T11:09:41;26.10;60.40
45785;DHT22;31489;51.404;5.474;2023-08-31T11:12:07;26.30;61.10
45785;DHT22;31489;51.404;5.474;2023-08-31T11:14:33;26.60;60.80
45785;DHT22;31489;51.404;5.474;2023-08-31T11:16:59;26.90;60.00
45785;DHT22;31489;51.404;5.474;2023-08-31T11:19:26;27.20;58.60
45785;DHT22;31489;51.404;5.474;2023-08-31T11:21:54;27.40;58.00
45785;DHT22;31489;51.404;5.474;2023-08-31T11:24:19;27.60;57.00
45785;DHT22;31489;51.404;5.474;2023-08-31T11:26:51;27.80;57.00
45785;DHT22;31489;51.404;5.474;2023-08-31T11:29:17;27.90;55.70
45785;DHT22;31489;51.404;5.474;2023-08-31T11:31:43;28.10;55.50
45785;DHT22;31489;51.404;5.474;2023-08-31T11:34:13;28.10;54.90
45785;DHT22;31489;51.404;5.474;2023-08-31T11:36:39;28.10;53.30
45785;DHT22;31489;51.404;5.474;2023-08-31T11:39:06;28.00;53.70
45785;DHT22;31489;51.404;5.474;2023-08-31T11:41:36;27.90;53.40
45785;DHT22;31489;51.404;5.474;2023-08-31T11:44:10;27.90;53.30
45785;DHT22;31489;51.404;5.474;2023-08-31T11:46:38;27.80;53.50
45785;DHT22;31489;51.404;5.474;2023-08-31T11:49:05;27.70;53.60
45785;DHT22;31489;51.404;5.474;2023-08-31T11:51:33;27.70;53.80
45785;DHT22;31489;51.404;5.474;2023-08-31T11:54:02;27.80;54.20
45785;DHT22;31489;51.404;5.474;2023-08-31T11:56:49;27.90;53.60
45785;DHT22;31489;51.404;5.474;2023-08-31T11:59:17;28.00;52.40
45785;DHT22;31489;51.404;5.474;2023-08-31T12:01:44;28.00;52.50
45785;DHT22;31489;51.404;5.474;2023-08-31T12:04:29;28.10;52.10
45785;DHT22;31489;51.404;5.474;2023-08-31T12:07:02;28.10;51.70
45785;DHT22;31489;51.404;5.474;2023-08-31T12:09:31;28.20;50.70
45785;DHT22;31489;51.404;5.474;2023-08-31T12:11:57;28.20;51.30
45785;DHT22;31489;51.404;5.474;2023-08-31T12:14:24;28.20;51.60
45785;DHT22;31489;51.404;5.474;2023-08-31T12:16:51;28.20;50.60
45785;DHT22;31489;51.404;5.474;2023-08-31T12:19:17;28.10;50.80
45785;DHT22;31489;51.404;5.474;2023-08-31T12:21:44;28.10;50.40
45785;DHT22;31489;51.404;5.474;2023-08-31T12:24:10;28.20;49.30
45785;DHT22;31489;51.404;5.474;2023-08-31T12:26:36;28.10;49.30
45785;DHT22;31489;51.404;5.474;2023-08-31T12:29:03;28.00;48.70
45785;DHT22;31489;51.404;5.474;2023-08-31T12:31:32;27.90;48.40
45785;DHT22;31489;51.404;5.474;2023-08-31T12:33:58;27.70;49.10
45785;DHT22;31489;51.404;5.474;2023-08-31T12:36:25;27.60;50.00
45785;DHT22;31489;51.404;5.474;2023-08-31T12:38:51;27.50;49.90
45785;DHT22;31489;51.404;5.474;2023-08-31T12:41:17;27.50;49.70
45785;DHT22;31489;51.404;5.474;2023-08-31T12:43:45;27.40;49.90
45785;DHT22;31489;51.404;5.474;2023-08-31T12:46:10;27.40;49.50
45785;DHT22;31489;51.404;5.474;2023-08-31T12:48:39;27.30;49.10
45785;DHT22;31489;51.404;5.474;2023-08-31T12:51:04;27.10;48.70
45785;DHT22;31489;51.404;5.474;2023-08-31T12:53:30;26.90;49.10
45785;DHT22;31489;51.404;5.474;2023-08-31T12:55:56;26.80;48.60
45785;DHT22;31489;51.404;5.474;2023-08-31T12:58:21;26.60;48.60
45785;DHT22;31489;51.404;5.474;2023-08-31T13:00:48;26.40;48.60
45785;DHT22;31489;51.404;5.474;2023-08-31T13:03:15;26.20;48.40
45785;DHT22;31489;51.404;5.474;2023-08-31T13:05:41;26.00;48.30
45785;DHT22;31489;51.404;5.474;2023-08-31T13:08:07;25.80;49.40
45785;DHT22;31489;51.404;5.474;2023-08-31T13:10:34;25.60;49.20
45785;DHT22;31489;51.404;5.474;2023-08-31T13:13:00;25.50;50.00
45785;DHT22;31489;51.404;5.474;2023-08-31T13:15:26;25.30;51.40
45785;DHT22;31489;51.404;5.474;2023-08-31T13:17:51;25.10;52.60
45785;DHT22;31489;51.404;5.474;2023-08-31T13:20:17;24.80;53.80
45785;DHT22;31489;51.404;5.474;2023-08-31T13:22:43;24.70;55.60
45785;DHT22;31489;51.404;5.474;2023-08-31T13:25:08;24.50;55.80
45785;DHT22;31489;51.404;5.474;2023-08-31T13:27:36;24.30;56.80
45785;DHT22;31489;51.404;5.474;2023-08-31T13:30:03;24.10;57.30
45785;DHT22;31489;51.404;5.474;2023-08-31T13:32:32;23.90;58.90
45785;DHT22;31489;51.404;5.474;2023-08-31T13:34:57;23.80;60.50
45785;DHT22;31489;51.404;5.474;2023-08-31T13:37:23;23.70;59.40
45785;DHT22;31489;51.404;5.474;2023-08-31T13:39:50;23.60;59.30
45785;DHT22;31489;51.404;5.474;2023-08-31T13:42:17;23.50;60.10
45785;DHT22;31489;51.404;5.474;2023-08-31T13:44:43;23.40;60.00
45785;DHT22;31489;51.404;5.474;2023-08-31T13:47:08;23.30;60.00
45785;DHT22;31489;51.404;5.474;2023-08-31T13:49:34;23.30;60.30
45785;DHT22;31489;51.404;5.474;2023-08-31T13:52:00;23.30;61.10
45785;DHT22;31489;51.404;5.474;2023-08-31T13:54:26;23.30;61.50
45785;DHT22;31489;51.404;5.474;2023-08-31T13:56:52;23.30;61.90
45785;DHT22;31489;51.404;5.474;2023-08-31T13:59:17;23.30;62.10
45785;DHT22;31489;51.404;5.474;2023-08-31T14:01:43;23.40;62.10
45785;DHT22;31489;51.404;5.474;2023-08-31T14:04:09;23.40;61.70
45785;DHT22;31489;51.404;5.474;2023-08-31T14:06:34;23.50;61.50
45785;DHT22;31489;51.404;5.474;2023-08-31T14:09:01;23.50;61.30
45785;DHT22;31489;51.404;5.474;2023-08-31T14:11:28;23.60;60.60
45785;DHT22;31489;51.404;5.474;2023-08-31T14:14:03;23.70;59.90
45785;DHT22;31489;51.404;5.474;2023-08-31T14:16:31;23.70;59.50
45785;DHT22;31489;51.404;5.474;2023-08-31T14:18:57;23.70;60.90
45785;DHT22;31489;51.404;5.474;2023-08-31T14:21:23;23.80;60.30
45785;DHT22;31489;51.404;5.474;2023-08-31T14:23:48;23.90;60.40
45785;DHT22;31489;51.404;5.474;2023-08-31T14:26:14;23.90;60.40
45785;DHT22;31489;51.404;5.474;2023-08-31T14:28:40;23.90;60.40
45785;DHT22;31489;51.404;5.474;2023-08-31T14:31:06;24.00;61.50
45785;DHT22;31489;51.404;5.474;2023-08-31T14:33:33;24.00;60.60
45785;DHT22;31489;51.404;5.474;2023-08-31T14:35:58;24.10;60.40
45785;DHT22;31489;51.404;5.474;2023-08-31T14:38:24;24.20;60.30
45785;DHT22;31489;51.404;5.474;2023-08-31T14:40:51;24.20;60.20
45785;DHT22;31489;51.404;5.474;2023-08-31T14:43:17;24.20;60.90
45785;DHT22;31489;51.404;5.474;2023-08-31T14:45:43;24.30;61.10
45785;DHT22;31489;51.404;5.474;2023-08-31T14:48:08;24.40;61.80
45785;DHT22;31489;51.404;5.474;2023-08-31T14:50:34;24.40;61.10
45785;DHT22;31489;51.404;5.474;2023-08-31T14:53:00;24.60;60.50
45785;DHT22;31489;51.404;5.474;2023-08-31T14:55:25;24.60;60.70
45785;DHT22;31489;51.404;5.474;2023-08-31T14:57:51;24.70;59.90
45785;DHT22;31489;51.404;5.474;2023-08-31T15:00:17;24.70;59.50
45785;DHT22;31489;51.404;5.474;2023-08-31T15:02:44;24.70;59.00
45785;DHT22;31489;51.404;5.474;2023-08-31T15:05:10;24.70;59.00
45785;DHT22;31489;51.404;5.474;2023-08-31T15:07:35;24.60;59.00
45785;DHT22;31489;51.404;5.474;2023-08-31T15:10:01;24.60;59.00
45785;DHT22;31489;51.404;5.474;2023-08-31T15:12:27;24.50;59.30
45785;DHT22;31489;51.404;5.474;2023-08-31T15:14:53;24.50;58.70
45785;DHT22;31489;51.404;5.474;2023-08-31T15:17:21;24.40;59.00
45785;DHT22;31489;51.404;5.474;2023-08-31T15:19:46;24.30;58.60
45785;DHT22;31489;51.404;5.474;2023-08-31T15:22:12;24.30;58.10
45785;DHT22;31489;51.404;5.474;2023-08-31T15:24:38;24.30;58.10
45785;DHT22;31489;51.404;5.474;2023-08-31T15:27:06;24.20;58.20
45785;DHT22;31489;51.404;5.474;2023-08-31T15:29:32;24.10;59.10
45785;DHT22;31489;51.404;5.474;2023-08-31T15:31:59;24.10;58.30
45785;DHT22;31489;51.404;5.474;2023-08-31T15:34:24;24.00;57.70
45785;DHT22;31489;51.404;5.474;2023-08-31T15:36:50;23.90;57.70
45785;DHT22;31489;51.404;5.474;2023-08-31T15:39:16;23.90;58.20
45785;DHT22;31489;51.404;5.474;2023-08-31T15:41:42;23.90;57.70
45785;DHT22;31489;51.404;5.474;2023-08-31T15:44:07;23.90;59.10
45785;DHT22;31489;51.404;5.474;2023-08-31T15:46:33;23.90;57.50
45785;DHT22;31489;51.404;5.474;2023-08-31T15:48:59;23.90;57.30
45785;DHT22;31489;51.404;5.474;2023-08-31T15:51:25;23.90;57.20